createdAt,value
2023-02-17T00:00:22.462Z,8.66
2023-02-17T00:02:52.570Z,8.69
2023-02-17T00:05:22.705Z,8.78
2023-02-17T00:07:57.660Z,8.83
2023-02-17T00:10:27.659Z,8.86
2023-02-17T00:12:57.710Z,8.89
2023-02-17T00:15:27.701Z,8.93
2023-02-17T00:17:58.171Z,8.96
2023-02-17T00:20:28.422Z,8.99
2023-02-17T00:23:01.218Z,9.03
2023-02-17T00:25:32.612Z,9.05
2023-02-17T00:28:02.883Z,9.07
2023-02-17T00:30:33.438Z,9.07
2023-02-17T00:33:04.366Z,9.09
2023-02-17T00:35:36.577Z,9.12
2023-02-17T00:38:09.393Z,9.13
2023-02-17T00:40:39.447Z,9.08
2023-02-17T00:43:09.582Z,9.16
2023-02-17T00:45:39.634Z,9.20
2023-02-17T00:48:10.882Z,9.22
2023-02-17T00:50:42.110Z,9.23
2023-02-17T00:53:14.768Z,9.26
2023-02-17T00:55:45.082Z,9.26
2023-02-17T00:58:15.314Z,9.25
2023-02-17T01:00:45.617Z,9.29
2023-02-17T01:03:15.794Z,9.31
2023-02-17T01:05:46.611Z,9.28
2023-02-17T01:08:21.116Z,9.33
2023-02-17T01:10:52.571Z,9.31
2023-02-17T01:13:23.137Z,9.33
2023-02-17T01:15:57.622Z,9.34
2023-02-17T01:18:28.116Z,9.41
2023-02-17T01:20:58.510Z,9.43
2023-02-17T01:23:31.071Z,9.42
2023-02-17T01:26:01.730Z,9.47
2023-02-17T01:28:32.977Z,9.47
2023-02-17T01:31:08.581Z,9.48
2023-02-17T01:33:39.391Z,9.46
2023-02-17T01:36:15.248Z,9.50
2023-02-17T01:38:49.333Z,9.49
2023-02-17T01:41:22.982Z,9.48
2023-02-17T01:44:12.258Z,9.52
2023-02-17T01:46:43.945Z,9.51
2023-02-17T01:49:34.175Z,9.57
2023-02-17T01:52:10.875Z,9.58
2023-02-17T01:54:48.543Z,9.56
2023-02-17T01:57:23.693Z,9.62
2023-02-17T01:59:55.074Z,9.63
2023-02-17T02:02:30.226Z,9.66
2023-02-17T02:05:00.671Z,9.69
2023-02-17T02:07:35.072Z,9.73
2023-02-17T02:10:09.496Z,9.74
2023-02-17T02:12:40.592Z,9.74
2023-02-17T02:15:14.817Z,9.76
2023-02-17T02:17:56.185Z,9.79
2023-02-17T02:20:45.141Z,9.82
2023-02-17T02:23:51.502Z,9.82
2023-02-17T02:26:56.832Z,9.86
2023-02-17T02:29:44.215Z,9.87
2023-02-17T02:32:46.105Z,9.88
2023-02-17T02:35:22.687Z,9.88
2023-02-17T02:37:57.334Z,9.90
2023-02-17T02:40:32.607Z,9.93
2023-02-17T02:43:05.172Z,9.92
2023-02-17T02:45:36.177Z,9.93
2023-02-17T02:48:10.602Z,9.97
2023-02-17T02:50:56.475Z,9.99
2023-02-17T02:53:51.958Z,9.98
2023-02-17T02:56:36.533Z,9.98
2023-02-17T02:59:19.858Z,9.91
2023-02-17T03:01:58.199Z,9.98
2023-02-17T03:04:36.313Z,9.98
2023-02-17T03:07:21.494Z,10.01
2023-02-17T03:09:52.612Z,10.06
2023-02-17T03:12:23.533Z,10.07
2023-02-17T03:14:58.760Z,9.99
2023-02-17T03:17:28.910Z,10.09
2023-02-17T03:20:05.476Z,10.10
2023-02-17T03:22:40.717Z,10.08
2023-02-17T03:25:12.072Z,10.11
2023-02-17T03:27:42.376Z,10.07
2023-02-17T03:30:13.941Z,10.08
2023-02-17T03:32:47.833Z,10.12
2023-02-17T03:35:20.795Z,10.10
2023-02-17T03:37:51.325Z,10.12
2023-02-17T03:40:21.612Z,10.13
2023-02-17T03:42:51.707Z,10.15
2023-02-17T03:45:21.643Z,10.07
2023-02-17T03:47:51.594Z,10.15
2023-02-17T03:50:26.888Z,10.15
2023-02-17T03:52:56.882Z,10.11
2023-02-17T03:55:27.278Z,10.15
2023-02-17T03:57:57.218Z,10.16
2023-02-17T04:00:27.532Z,10.19
2023-02-17T04:02:57.731Z,10.20
2023-02-17T04:05:30.651Z,10.16
2023-02-17T04:08:00.573Z,10.18
2023-02-17T04:10:30.692Z,10.19
2023-02-17T04:13:00.641Z,10.20
2023-02-17T04:15:30.574Z,10.20
2023-02-17T04:18:02.913Z,10.18
2023-02-17T04:20:35.752Z,10.17
2023-02-17T04:23:05.683Z,10.19
2023-02-17T04:25:36.923Z,10.05
2023-02-17T04:28:09.645Z,10.20
2023-02-17T04:30:39.739Z,10.21
2023-02-17T04:33:09.824Z,10.20
2023-02-17T04:35:42.633Z,10.22
2023-02-17T04:38:13.188Z,10.21
2023-02-17T04:40:46.036Z,10.21
2023-02-17T04:43:16.770Z,10.19
2023-02-17T04:45:46.831Z,10.21
2023-02-17T04:48:16.866Z,10.18
2023-02-17T04:50:49.567Z,10.20
2023-02-17T04:53:19.813Z,10.19
2023-02-17T04:55:52.698Z,10.19
2023-02-17T04:58:23.689Z,10.07
2023-02-17T05:00:54.445Z,10.19
2023-02-17T05:03:24.464Z,10.18
2023-02-17T05:05:58.323Z,10.19
2023-02-17T05:08:28.521Z,10.18
2023-02-17T05:10:58.541Z,10.19
2023-02-17T05:13:28.456Z,10.18
2023-02-17T05:15:58.492Z,10.12
2023-02-17T05:18:28.567Z,10.18
2023-02-17T05:21:01.268Z,10.14
2023-02-17T05:23:31.155Z,10.21
2023-02-17T05:26:01.084Z,10.14
2023-02-17T05:28:31.082Z,10.24
2023-02-17T05:31:01.191Z,10.24
2023-02-17T05:33:31.362Z,10.27
2023-02-17T05:36:08.519Z,10.30
2023-02-17T05:38:39.860Z,10.32
2023-02-17T05:41:09.899Z,10.31
2023-02-17T05:43:39.912Z,10.38
2023-02-17T05:46:10.396Z,10.41
2023-02-17T05:48:40.808Z,10.42
2023-02-17T05:51:13.807Z,10.46
2023-02-17T05:53:43.664Z,10.47
2023-02-17T05:56:13.922Z,10.50
2023-02-17T05:58:43.867Z,10.53
2023-02-17T06:01:14.819Z,10.54
2023-02-17T06:03:44.663Z,10.55
2023-02-17T06:06:17.425Z,10.57
2023-02-17T06:08:47.256Z,10.57
2023-02-17T06:11:17.342Z,10.57
2023-02-17T06:13:47.449Z,10.62
2023-02-17T06:16:18.086Z,10.61
2023-02-17T06:18:48.323Z,10.64
2023-02-17T06:21:20.750Z,10.66
2023-02-17T06:23:51.317Z,10.68
2023-02-17T06:26:21.355Z,10.68
2023-02-17T06:28:51.266Z,10.68
2023-02-17T06:31:21.190Z,10.68
2023-02-17T06:33:51.353Z,10.70
2023-02-17T06:36:24.748Z,10.70
2023-02-17T06:38:54.658Z,10.63
2023-02-17T06:41:24.571Z,10.70
2023-02-17T06:43:54.462Z,10.71
2023-02-17T06:46:24.528Z,10.72
2023-02-17T06:48:54.631Z,10.73
2023-02-17T06:51:27.634Z,10.74
2023-02-17T06:53:57.853Z,10.77
2023-02-17T06:56:28.082Z,10.79
2023-02-17T06:58:58.085Z,10.78
2023-02-17T07:01:29.481Z,10.78
2023-02-17T07:03:59.938Z,10.79
2023-02-17T07:06:33.865Z,10.79
2023-02-17T07:09:04.895Z,10.80
2023-02-17T07:11:34.765Z,10.74
2023-02-17T07:14:05.208Z,10.82
2023-02-17T07:16:36.589Z,10.79
2023-02-17T07:19:06.695Z,10.84
2023-02-17T07:21:39.595Z,10.84
2023-02-17T07:24:09.917Z,10.85
2023-02-17T07:26:40.243Z,10.87
2023-02-17T07:29:11.396Z,10.87
2023-02-17T07:31:41.941Z,10.91
2023-02-17T07:34:13.437Z,10.91
2023-02-17T07:36:46.306Z,10.93
2023-02-17T07:39:16.729Z,10.92
2023-02-17T07:41:47.008Z,10.94
2023-02-17T07:44:23.070Z,10.98
2023-02-17T07:46:53.125Z,10.97
2023-02-17T07:49:23.143Z,10.97
2023-02-17T07:51:56.090Z,10.93
2023-02-17T07:54:26.366Z,10.96
2023-02-17T07:56:56.657Z,11.01
2023-02-17T07:59:26.753Z,11.05
2023-02-17T08:01:56.762Z,11.07
2023-02-17T08:04:27.000Z,10.88
2023-02-17T08:06:59.534Z,11.08
2023-02-17T08:09:47.656Z,11.10
2023-02-17T08:12:32.270Z,11.12
2023-02-17T08:15:02.600Z,11.11
2023-02-17T08:17:33.160Z,11.13
2023-02-17T08:20:08.749Z,11.15
2023-02-17T08:22:41.878Z,11.16
2023-02-17T08:25:12.076Z,11.16
2023-02-17T08:27:42.393Z,11.16
2023-02-17T08:30:13.716Z,11.19
2023-02-17T08:32:43.876Z,11.21
2023-02-17T08:35:13.907Z,11.22
2023-02-17T08:37:46.813Z,11.22
2023-02-17T08:40:16.758Z,11.23
2023-02-17T08:42:46.930Z,11.24
2023-02-17T08:45:17.609Z,11.24
2023-02-17T08:47:51.026Z,11.21
2023-02-17T08:50:21.242Z,11.22
2023-02-17T08:52:53.924Z,11.23
2023-02-17T08:55:26.549Z,11.27
2023-02-17T08:57:56.820Z,11.28
2023-02-17T09:00:26.987Z,11.29
2023-02-17T09:02:57.008Z,11.32
2023-02-17T09:05:27.235Z,11.32
2023-02-17T09:08:07.221Z,11.38
2023-02-17T09:10:37.269Z,11.40
2023-02-17T09:13:07.431Z,11.40
2023-02-17T09:15:37.472Z,11.43
2023-02-17T09:18:07.631Z,11.45
2023-02-17T09:20:37.791Z,11.46
2023-02-17T09:23:10.646Z,11.47
2023-02-17T09:25:40.620Z,11.50
2023-02-17T09:28:11.119Z,11.51
2023-02-17T09:30:41.153Z,11.44
2023-02-17T09:33:13.146Z,11.51
2023-02-17T09:35:44.574Z,11.53
2023-02-17T09:38:17.179Z,11.56
2023-02-17T09:40:50.904Z,11.56
2023-02-17T09:43:25.334Z,11.55
2023-02-17T09:46:00.388Z,11.57
2023-02-17T09:48:34.080Z,11.57
2023-02-17T09:51:07.564Z,11.57
2023-02-17T09:53:45.803Z,11.56
2023-02-17T09:56:25.090Z,11.63
2023-02-17T09:58:58.362Z,11.65
2023-02-17T10:01:33.758Z,11.56
2023-02-17T10:04:08.132Z,11.63
2023-02-17T10:06:41.894Z,11.60
2023-02-17T10:09:22.182Z,11.64
2023-02-17T10:11:59.328Z,11.65
2023-02-17T10:14:33.870Z,11.68
2023-02-17T10:17:10.076Z,11.69
2023-02-17T10:19:48.024Z,11.66
2023-02-17T10:22:21.535Z,11.66
2023-02-17T10:24:55.164Z,11.65
2023-02-17T10:27:35.029Z,11.62
2023-02-17T10:30:22.136Z,11.60
2023-02-17T10:33:02.683Z,11.66
2023-02-17T10:35:48.298Z,11.64
2023-02-17T10:38:20.924Z,11.67
2023-02-17T10:40:55.821Z,11.63
2023-02-17T10:43:30.085Z,11.68
2023-02-17T10:46:02.806Z,11.68
2023-02-17T10:48:40.047Z,11.76
2023-02-17T10:51:10.495Z,11.83
2023-02-17T10:53:43.059Z,11.85
2023-02-17T10:56:20.301Z,11.89
2023-02-17T10:58:56.884Z,11.94
2023-02-17T11:01:26.997Z,12.01
2023-02-17T11:04:05.075Z,12.01
2023-02-17T11:06:40.514Z,11.98
2023-02-17T11:09:21.601Z,11.92
2023-02-17T11:12:01.937Z,12.04
2023-02-17T11:14:34.007Z,12.08
2023-02-17T11:17:06.684Z,12.16
2023-02-17T11:19:38.443Z,12.27
2023-02-17T11:22:25.555Z,12.35
2023-02-17T11:25:00.794Z,12.47
2023-02-17T11:27:33.628Z,12.55
2023-02-17T11:30:18.761Z,12.67
2023-02-17T11:32:49.437Z,12.79
2023-02-17T11:35:29.766Z,12.80
2023-02-17T11:38:05.078Z,12.92
2023-02-17T11:40:36.318Z,12.96
2023-02-17T11:43:09.318Z,13.00
2023-02-17T11:45:46.913Z,13.04
2023-02-17T11:48:37.511Z,13.06
2023-02-17T11:54:07.350Z,13.12
2023-02-17T11:56:39.885Z,13.21
2023-02-17T11:59:38.822Z,13.25
2023-02-17T12:02:20.965Z,13.20
2023-02-17T12:05:14.091Z,13.16
2023-02-17T12:07:55.322Z,13.11
2023-02-17T12:10:35.764Z,13.29
2023-02-17T12:13:23.619Z,13.46
2023-02-17T12:16:09.716Z,13.53
2023-02-17T12:18:59.384Z,13.49
2023-02-17T12:21:46.746Z,13.49
2023-02-17T12:24:37.313Z,13.40
2023-02-17T12:27:18.754Z,13.33
2023-02-17T12:30:07.936Z,13.23
2023-02-17T12:32:53.258Z,13.19
2023-02-17T12:35:27.253Z,13.09
2023-02-17T12:38:00.188Z,13.02
2023-02-17T12:40:40.928Z,12.99
2023-02-17T12:43:24.815Z,12.96
2023-02-17T12:45:57.680Z,12.92
2023-02-17T12:48:37.018Z,12.89
2023-02-17T12:51:11.667Z,12.87
2023-02-17T12:53:46.967Z,12.86
2023-02-17T12:56:51.066Z,12.81
2023-02-17T12:59:25.268Z,12.83
2023-02-17T13:01:57.836Z,12.82
2023-02-17T13:04:32.713Z,12.81
2023-02-17T13:07:24.645Z,12.67
2023-02-17T13:09:59.440Z,12.76
2023-02-17T13:12:36.369Z,12.70
2023-02-17T13:15:08.689Z,12.70
2023-02-17T13:17:42.050Z,12.72
2023-02-17T13:20:53.441Z,12.68
2023-02-17T13:23:35.061Z,12.66
2023-02-17T13:26:27.171Z,12.65
2023-02-17T13:29:10.606Z,12.64
2023-02-17T13:31:50.613Z,12.56
2023-02-17T13:34:29.652Z,12.47
2023-02-17T13:37:17.488Z,12.33
2023-02-17T13:39:48.336Z,12.17
2023-02-17T13:42:48.941Z,12.05
2023-02-17T13:45:27.240Z,11.88
2023-02-17T13:47:59.533Z,11.89
2023-02-17T13:50:36.107Z,11.87
2023-02-17T13:53:25.441Z,11.84
2023-02-17T13:55:57.299Z,11.82
2023-02-17T13:58:32.571Z,11.77
2023-02-17T14:01:04.655Z,11.84
2023-02-17T14:03:38.245Z,11.71
2023-02-17T14:06:10.316Z,11.63
2023-02-17T14:08:44.609Z,11.52
2023-02-17T14:11:16.852Z,11.51
2023-02-17T14:13:49.141Z,11.45
2023-02-17T14:16:33.504Z,11.41
2023-02-17T14:19:14.586Z,11.36
2023-02-17T14:21:46.995Z,11.34
2023-02-17T14:24:30.846Z,11.32
2023-02-17T14:27:03.700Z,11.32
2023-02-17T14:29:44.430Z,11.32
2023-02-17T14:32:36.172Z,11.30
2023-02-17T14:35:23.028Z,11.32
2023-02-17T14:37:52.982Z,11.33
2023-02-17T14:40:27.618Z,11.36
2023-02-17T14:42:57.445Z,11.35
2023-02-17T14:45:27.367Z,11.29
2023-02-17T14:47:57.787Z,11.21
2023-02-17T14:50:27.901Z,11.17
2023-02-17T14:52:58.726Z,11.15
2023-02-17T14:55:39.216Z,11.11
2023-02-17T14:58:09.278Z,11.15
2023-02-17T15:00:39.514Z,11.15
2023-02-17T15:03:09.350Z,11.18
2023-02-17T15:05:39.613Z,11.19
2023-02-17T15:08:12.438Z,11.21
2023-02-17T15:10:45.720Z,11.23
2023-02-17T15:13:18.609Z,11.27
2023-02-17T15:15:49.799Z,11.29
2023-02-17T15:18:21.438Z,11.34
2023-02-17T15:20:54.091Z,11.20
2023-02-17T15:23:26.695Z,11.20
2023-02-17T15:26:00.398Z,11.30
2023-02-17T15:28:30.417Z,11.34
2023-02-17T15:31:00.435Z,11.32
2023-02-17T15:33:30.372Z,11.34
2023-02-17T15:36:01.513Z,11.34
2023-02-17T15:38:32.043Z,11.32
2023-02-17T15:41:05.822Z,11.26
2023-02-17T15:43:38.386Z,11.27
2023-02-17T15:46:15.625Z,11.30
2023-02-17T15:48:48.775Z,11.32
2023-02-17T15:51:24.748Z,11.32
2023-02-17T15:53:54.930Z,11.34
2023-02-17T15:56:30.179Z,11.26
2023-02-17T15:59:02.802Z,11.43
2023-02-17T16:01:35.202Z,11.45
2023-02-17T16:04:05.415Z,11.48
2023-02-17T16:06:35.573Z,11.49
2023-02-17T16:09:05.810Z,11.49
2023-02-17T16:11:43.658Z,11.50
2023-02-17T16:14:24.079Z,11.48
2023-02-17T16:17:11.428Z,11.42
2023-02-17T16:19:41.656Z,11.43
2023-02-17T16:22:12.224Z,11.44
2023-02-17T16:24:42.140Z,11.46
2023-02-17T16:27:17.755Z,11.45
2023-02-17T16:29:47.698Z,11.43
2023-02-17T16:32:17.903Z,11.44
2023-02-17T16:34:47.886Z,11.38
2023-02-17T16:37:20.244Z,11.37
2023-02-17T16:39:50.200Z,11.38
2023-02-17T16:42:22.985Z,11.36
2023-02-17T16:44:52.975Z,11.30
2023-02-17T16:47:24.631Z,11.27
2023-02-17T16:49:54.771Z,11.23
2023-02-17T16:52:27.932Z,11.21
2023-02-17T16:54:58.296Z,11.19
2023-02-17T16:57:31.049Z,11.20
2023-02-17T17:00:01.157Z,11.19
2023-02-17T17:02:31.404Z,11.19
2023-02-17T17:05:02.246Z,11.17
2023-02-17T17:07:34.067Z,11.08
2023-02-17T17:10:19.189Z,11.17
2023-02-17T17:12:52.309Z,11.24
2023-02-17T17:15:22.951Z,11.27
2023-02-17T17:17:58.465Z,11.29
2023-02-17T17:20:32.045Z,11.32
2023-02-17T17:23:03.248Z,11.36
2023-02-17T17:25:34.890Z,11.37
2023-02-17T17:28:09.385Z,11.39
2023-02-17T17:30:39.516Z,11.38
2023-02-17T17:33:09.671Z,11.38
2023-02-17T17:35:40.052Z,11.42
2023-02-17T17:38:10.741Z,11.44
2023-02-17T17:40:56.784Z,11.44
2023-02-17T17:43:29.797Z,11.46
2023-02-17T17:45:59.875Z,11.47
2023-02-17T17:48:30.287Z,11.47
2023-02-17T17:51:00.231Z,11.38
2023-02-17T17:53:30.276Z,11.26
2023-02-17T17:56:00.300Z,11.15
2023-02-17T17:58:34.623Z,11.10
2023-02-17T18:01:04.988Z,11.00
2023-02-17T18:03:35.028Z,10.94
2023-02-17T18:06:06.284Z,10.88
2023-02-17T18:08:37.631Z,10.75
2023-02-17T18:11:08.802Z,10.63
2023-02-17T18:13:41.668Z,10.51
2023-02-17T18:16:11.951Z,10.48
2023-02-17T18:18:42.765Z,10.30
2023-02-17T18:21:12.713Z,10.35
2023-02-17T18:23:42.892Z,10.28
2023-02-17T18:26:14.011Z,10.20
2023-02-17T18:28:46.708Z,10.15
2023-02-17T18:31:21.945Z,10.10
2023-02-17T18:33:51.948Z,10.03
2023-02-17T18:36:24.951Z,10.04
2023-02-17T18:38:55.177Z,10.05
2023-02-17T18:41:27.917Z,10.02
2023-02-17T18:44:03.189Z,9.94
2023-02-17T18:46:33.558Z,9.91
2023-02-17T18:49:03.907Z,9.90
2023-02-17T18:51:34.496Z,9.91
2023-02-17T18:54:05.400Z,9.78
2023-02-17T18:56:35.859Z,9.70
2023-02-17T18:59:09.573Z,9.78
2023-02-17T19:01:43.446Z,9.74
2023-02-17T19:04:15.128Z,9.63
2023-02-17T19:06:45.440Z,9.61
2023-02-17T19:09:15.470Z,9.58
2023-02-17T19:11:45.581Z,9.51
2023-02-17T19:14:18.132Z,9.38
2023-02-17T19:16:48.150Z,9.17
2023-02-17T19:19:21.367Z,9.32
2023-02-17T19:21:51.630Z,9.30
2023-02-17T19:24:21.646Z,9.27
2023-02-17T19:26:53.155Z,9.29
2023-02-17T19:29:25.848Z,9.28
2023-02-17T19:31:59.671Z,9.26
2023-02-17T19:34:34.237Z,9.21
2023-02-17T19:37:04.620Z,9.00
2023-02-17T19:39:38.953Z,9.11
2023-02-17T19:42:08.985Z,9.06
2023-02-17T19:44:41.599Z,9.05
2023-02-17T19:47:11.935Z,8.99
2023-02-17T19:49:42.088Z,8.96
2023-02-17T19:52:12.254Z,8.87
2023-02-17T19:54:42.195Z,8.88
2023-02-17T19:57:12.235Z,8.87
2023-02-17T19:59:44.791Z,8.85
2023-02-17T20:02:18.102Z,8.83
2023-02-17T20:04:48.030Z,8.79
2023-02-17T20:07:17.985Z,8.78
2023-02-17T20:09:47.899Z,8.73
2023-02-17T20:12:18.131Z,8.70
2023-02-17T20:14:50.875Z,8.63
2023-02-17T20:17:20.789Z,8.65
2023-02-17T20:19:51.018Z,8.65
2023-02-17T20:22:21.466Z,8.66
2023-02-17T20:24:51.716Z,8.61
2023-02-17T20:27:21.919Z,8.64
2023-02-17T20:29:54.433Z,8.59
2023-02-17T20:32:25.865Z,8.57
2023-02-17T20:34:55.996Z,8.47
2023-02-17T20:37:26.005Z,8.43
2023-02-17T20:39:56.056Z,8.36
2023-02-17T20:42:26.343Z,8.32
2023-02-17T20:44:58.954Z,8.33
2023-02-17T20:47:28.997Z,8.30
2023-02-17T20:49:59.534Z,8.31
2023-02-17T20:52:29.565Z,8.28
2023-02-17T20:54:59.645Z,8.32
2023-02-17T20:57:30.148Z,8.32
2023-02-17T21:00:04.414Z,8.30
2023-02-17T21:02:34.070Z,8.27
2023-02-17T21:05:04.390Z,8.17
2023-02-17T21:07:34.249Z,8.23
2023-02-17T21:10:04.571Z,8.25
2023-02-17T21:12:34.700Z,8.03
2023-02-17T21:15:07.788Z,8.19
2023-02-17T21:17:37.985Z,8.21
2023-02-17T21:20:09.286Z,8.19
2023-02-17T21:22:39.652Z,8.19
2023-02-17T21:25:10.582Z,8.14
2023-02-17T21:27:40.724Z,8.15
2023-02-17T21:30:15.062Z,8.16
2023-02-17T21:32:44.922Z,8.12
2023-02-17T21:35:14.977Z,8.14
2023-02-17T21:37:45.202Z,8.12
2023-02-17T21:40:17.349Z,8.13
2023-02-17T21:42:59.556Z,8.11
2023-02-17T21:45:39.462Z,8.09
2023-02-17T21:48:10.357Z,8.06
2023-02-17T21:50:40.476Z,8.03
2023-02-17T21:53:10.448Z,8.02
2023-02-17T21:55:40.494Z,8.00
2023-02-17T21:58:10.517Z,7.96
2023-02-17T22:00:43.193Z,7.92
2023-02-17T22:03:13.050Z,7.92
2023-02-17T22:05:44.399Z,7.92
2023-02-17T22:08:15.042Z,7.90
2023-02-17T22:10:45.780Z,7.88
2023-02-17T22:13:15.674Z,7.86
2023-02-17T22:15:48.584Z,7.83
2023-02-17T22:18:18.412Z,7.86
2023-02-17T22:20:48.567Z,7.84
2023-02-17T22:23:18.490Z,7.85
2023-02-17T22:25:48.408Z,7.83
2023-02-17T22:28:18.293Z,7.78
2023-02-17T22:30:56.085Z,7.79
2023-02-17T22:33:26.057Z,7.78
2023-02-17T22:36:00.388Z,7.79
2023-02-17T22:38:30.819Z,7.76
2023-02-17T22:41:00.879Z,7.77
2023-02-17T22:43:30.754Z,7.71
2023-02-17T22:46:04.366Z,7.78
2023-02-17T22:48:35.913Z,7.74
2023-02-17T22:51:08.217Z,7.77
2023-02-17T22:53:38.751Z,7.77
2023-02-17T22:56:09.760Z,7.76
2023-02-17T22:58:42.454Z,7.74
2023-02-17T23:01:17.710Z,7.76
2023-02-17T23:03:52.394Z,7.76
2023-02-17T23:06:26.570Z,7.75
2023-02-17T23:08:57.482Z,7.65
2023-02-17T23:11:42.462Z,7.72
2023-02-17T23:14:13.283Z,7.76
2023-02-17T23:16:47.799Z,7.77
2023-02-17T23:19:19.584Z,7.75
2023-02-17T23:21:51.556Z,7.77
2023-02-17T23:24:22.668Z,7.75
2023-02-17T23:26:53.744Z,7.75
2023-02-17T23:29:24.785Z,7.74
2023-02-17T23:31:57.623Z,7.73
2023-02-17T23:34:28.424Z,7.77
2023-02-17T23:36:58.304Z,7.77
2023-02-17T23:39:28.841Z,7.76
2023-02-17T23:41:58.846Z,7.76
2023-02-17T23:44:28.879Z,7.78
2023-02-17T23:47:01.684Z,7.78
2023-02-17T23:49:31.596Z,7.77
2023-02-17T23:52:01.678Z,7.75
2023-02-17T23:54:31.587Z,7.73
2023-02-17T23:57:01.401Z,7.71
2023-02-17T23:59:31.312Z,7.67
